LIEE/CAG METAR and TAF weather

Enter ICAO airport designator
Station Type Date Time Source
LIEE METAR 2021/09/16 21:50 UTC NOAA

LIEE 162150Z 02006KT CAVOK 25/23 Q1015


Station Type Date Time Source
LIEE Decoded METAR 2021/09/16 21:50 UTC NOAA

Cagliari / Elmas, Italy (LIEE) 39-15N 009-04E 5M
Sep 16, 2021 - 05:50 PM EDT / 2021.09.16 2150 UTC
Wind: from the NNE (020 degrees) at 7 MPH (6 KT):0
Visibility: greater than 7 mile(s):0
Temperature: 77 F (25 C)
Dew Point: 73 F (23 C)
Relative Humidity: 88%
Pressure (altimeter): 29.97 in. Hg (1015 hPa)
ob: LIEE 162150Z 02006KT CAVOK 25/23 Q1015
cycle: 22

Station Type Date Time Source
LIEE TAF 2021/09/16 18:21 UTC NOAA

TAF LIEE 161700Z 1618/1718 34006KT 9999 SCT040
BECMG 1710/1712 17012KT

Example: see airport list